Time;durP1;ratioP1;P1;durP2;ratioP2;P2;SDS_P1;SDS_P2;PMS_P1;PMS_P2;Temp;Humidity;BMP_temperature;BMP_pressure;BME280_temperature;BME280_humidity;BME280_pressure;Samples;Min_cycle;Max_cycle;Signal;HPM_P1;HPM_P2
2022/08/20 00:00:31;;;;;;;12.00;10.20;;;;;;;19.54;82.54;96989.86;110053;1249;69250;-71
2022/08/20 00:03:30;;;;;;;12.50;10.00;;;;;;;19.59;82.32;96987.34;109884;1250;68651;-71
2022/08/20 00:06:03;;;;;;;10.70;9.60;;;;;;;19.70;81.86;96985.14;110040;1249;59688;-71
2022/08/20 00:08:33;;;;;;;9.90;8.90;;;;;;;19.75;81.36;96982.42;109889;1250;59986;-70
2022/08/20 00:11:07;;;;;;;10.70;9.20;;;;;;;19.81;81.05;96981.73;109692;1250;70601;-71
2022/08/20 00:13:40;;;;;;;9.10;8.20;;;;;;;19.84;80.80;96981.05;109877;1249;69547;-70
2022/08/20 00:16:11;;;;;;;10.80;8.70;;;;;;;19.79;79.08;96980.71;109928;1249;68380;-70
2022/08/20 00:18:42;;;;;;;11.00;9.00;;;;;;;19.68;78.99;96977.88;109952;1249;59744;-71
2022/08/20 00:21:14;;;;;;;11.20;8.90;;;;;;;19.56;79.11;96977.64;110066;1249;59727;-71
2022/08/20 00:23:50;;;;;;;9.70;8.70;;;;;;;19.46;78.80;96982.49;110089;1250;70687;-69
2022/08/20 00:26:22;;;;;;;10.10;8.10;;;;;;;19.33;78.64;96981.26;109697;1250;69324;-70
2022/08/20 00:28:52;;;;;;;9.10;8.10;;;;;;;19.20;79.20;96980.84;109815;1250;68690;-70
2022/08/20 00:31:23;;;;;;;10.60;8.90;;;;;;;19.08;79.20;96972.70;109993;1248;59758;-70
2022/08/20 00:33:55;;;;;;;10.50;9.00;;;;;;;18.98;79.59;96967.45;110144;1250;59774;-70
2022/08/20 00:36:25;;;;;;;9.70;8.10;;;;;;;18.87;79.96;96966.30;109760;1250;70772;-70
2022/08/20 00:39:02;;;;;;;10.60;9.00;;;;;;;18.76;80.27;96960.39;109826;1250;68611;-70
2022/08/20 00:41:34;;;;;;;11.30;9.60;;;;;;;18.74;83.68;96960.55;109719;1250;69470;-70
2022/08/20 00:44:10;;;;;;;10.90;9.50;;;;;;;18.80;84.35;96960.19;109833;1249;59696;-70
2022/08/20 00:46:42;;;;;;;11.10;9.90;;;;;;;18.88;84.89;96956.96;110071;1250;59696;-69
2022/08/20 00:49:24;;;;;;;11.40;9.50;;;;;;;18.97;84.35;96955.32;110057;1250;70571;-69
2022/08/20 00:52:12;;;;;;;11.30;9.50;;;;;;;19.07;83.70;96948.61;109760;1250;70311;-70
2022/08/20 00:54:47;;;;;;;11.20;9.20;;;;;;;19.12;83.44;96953.33;109968;1249;69272;-72
2022/08/20 00:57:33;;;;;;;8.90;8.00;;;;;;;19.15;83.04;96947.59;110044;1251;59705;-70
2022/08/20 01:00:36;;;;;;;11.40;10.10;;;;;;;19.18;82.25;96948.06;110022;1250;59725;-70
2022/08/20 01:03:11;;;;;;;10.10;8.80;;;;;;;19.16;82.01;96947.56;109992;1248;71416;-70
2022/08/20 01:05:44;;;;;;;10.60;9.30;;;;;;;19.17;81.96;96943.30;109835;1249;68472;-70
2022/08/20 01:08:17;;;;;;;11.70;9.30;;;;;;;19.13;82.15;96939.33;110008;1247;68509;-70
2022/08/20 01:10:49;;;;;;;11.40;10.20;;;;;;;19.00;83.11;96940.84;110160;1247;59724;-69
2022/08/20 01:13:24;;;;;;;12.50;9.30;;;;;;;18.93;83.03;96938.05;109974;1247;60111;-70
2022/08/20 01:15:56;;;;;;;11.10;10.00;;;;;;;18.97;83.48;96941.02;110120;1249;70929;-70
2022/08/20 01:18:27;;;;;;;12.10;9.80;;;;;;;19.00;83.01;96942.42;109921;1250;69498;-70
2022/08/20 01:21:00;;;;;;;11.70;8.60;;;;;;;19.08;82.74;96940.98;109687;1250;68781;-69
2022/08/20 01:23:53;;;;;;;10.20;9.00;;;;;;;19.09;81.90;96940.67;109699;1250;59755;-70
2022/08/20 01:26:37;;;;;;;10.80;9.70;;;;;;;19.09;82.05;96936.94;110015;1249;59765;-70
2022/08/20 01:29:17;;;;;;;11.30;9.50;;;;;;;19.07;81.49;96938.27;109929;1250;71408;-69
2022/08/20 01:31:47;;;;;;;10.40;8.80;;;;;;;18.94;80.57;96935.95;109661;1250;68662;-70
2022/08/20 01:34:19;;;;;;;8.80;7.90;;;;;;;18.80;80.11;96933.04;109957;1249;68997;-69
2022/08/20 01:36:53;;;;;;;11.60;8.80;;;;;;;18.63;81.89;96931.23;110016;1250;59703;-71
2022/08/20 01:39:27;;;;;;;9.90;8.90;;;;;;;18.60;84.28;96931.20;110041;1250;59765;-71
2022/08/20 01:42:14;;;;;;;9.00;8.10;;;;;;;18.61;84.08;96931.82;110170;1247;71520;-71
2022/08/20 01:44:46;;;;;;;9.20;8.30;;;;;;;18.56;81.53;96930.52;110110;1247;69429;-71
2022/08/20 01:47:22;;;;;;;9.30;8.30;;;;;;;18.50;81.07;96926.55;109834;1250;69467;-70
2022/08/20 01:49:59;;;;;;;10.40;8.10;;;;;;;18.46;83.15;96927.66;110051;1250;59706;-70
2022/08/20 01:52:40;;;;;;;12.40;10.00;;;;;;;18.37;81.56;96917.42;110081;1248;59718;-70
2022/08/20 01:55:11;;;;;;;11.30;10.10;;;;;;;18.23;82.18;96912.02;110188;1250;71661;-70
2022/08/20 01:57:41;;;;;;;11.30;10.10;;;;;;;18.17;82.92;96908.94;110235;1248;69384;-72
2022/08/20 02:00:15;;;;;;;12.40;10.60;;;;;;;18.08;82.96;96908.59;110025;1249;69440;-70
2022/08/20 02:02:49;;;;;;;13.60;10.30;;;;;;;18.02;85.17;96908.98;109806;1250;59700;-69
2022/08/20 02:05:21;;;;;;;11.90;9.80;;;;;;;17.98;84.31;96909.45;110057;1248;59664;-70
2022/08/20 02:07:51;;;;;;;13.10;10.50;;;;;;;17.93;83.57;96910.90;109869;1250;71518;-70
2022/08/20 02:10:22;;;;;;;11.10;9.60;;;;;;;17.86;83.41;96913.23;110117;1247;69248;-70
2022/08/20 02:12:53;;;;;;;11.70;9.50;;;;;;;17.78;82.92;96916.88;110016;1247;69440;-70
2022/08/20 02:15:23;;;;;;;12.60;10.60;;;;;;;17.76;87.06;96919.34;110060;1247;59738;-71
2022/08/20 02:18:06;;;;;;;11.30;9.90;;;;;;;17.84;88.20;96921.53;110077;1250;59754;-70
2022/08/20 02:20:37;;;;;;;13.90;10.40;;;;;;;17.93;87.86;96919.89;109927;1250;69678;-70
2022/08/20 02:23:08;;;;;;;13.40;10.50;;;;;;;17.97;87.55;96918.67;110157;1248;69399;-69
2022/08/20 02:25:40;;;;;;;10.70;9.50;;;;;;;17.94;87.60;96920.41;110124;1247;68461;-68
2022/08/20 02:28:13;;;;;;;11.50;10.10;;;;;;;17.87;86.47;96918.94;110050;1247;59643;-68
2022/08/20 02:30:48;;;;;;;13.10;11.40;;;;;;;17.76;88.14;96918.48;110060;1247;59612;-69
2022/08/20 02:33:21;;;;;;;13.50;11.30;;;;;;;17.63;88.92;96913.57;110096;1248;70916;-68
2022/08/20 02:35:55;;;;;;;12.90;10.30;;;;;;;17.57;89.10;96910.04;110020;1250;68417;-68
2022/08/20 02:38:25;;;;;;;12.40;11.00;;;;;;;17.51;88.61;96906.09;109934;1248;69663;-69
2022/08/20 02:40:56;;;;;;;11.20;9.50;;;;;;;17.45;87.93;96907.05;110055;1249;59677;-69
2022/08/20 02:43:26;;;;;;;12.50;9.80;;;;;;;17.42;89.89;96903.89;110103;1250;59615;-68
2022/08/20 02:45:58;;;;;;;14.70;11.00;;;;;;;17.40;90.15;96905.14;109894;1250;70600;-67
2022/08/20 02:48:30;;;;;;;11.40;9.40;;;;;;;17.39;89.10;96902.14;110049;1248;68591;-70
2022/08/20 02:51:03;;;;;;;11.40;8.70;;;;;;;17.37;87.25;96902.10;110335;1246;69376;-69
2022/08/20 02:53:36;;;;;;;12.30;10.10;;;;;;;17.37;88.05;96893.55;109976;1250;59675;-69
2022/08/20 02:56:07;;;;;;;11.40;9.50;;;;;;;17.37;87.09;96896.06;110050;1248;59682;-70
2022/08/20 02:58:39;;;;;;;12.10;9.70;;;;;;;17.34;85.86;96895.43;109784;1250;71511;-68
2022/08/20 03:01:15;;;;;;;14.00;10.50;;;;;;;17.30;86.14;96894.55;109918;1247;69008;-68
2022/08/20 03:03:45;;;;;;;11.70;9.50;;;;;;;17.30;86.23;96897.55;110069;1247;68458;-68
2022/08/20 03:06:15;;;;;;;10.90;9.40;;;;;;;17.30;86.24;96901.62;109908;1247;59665;-68
2022/08/20 03:08:46;;;;;;;11.00;9.70;;;;;;;17.30;86.03;96902.58;109977;1250;59702;-68
2022/08/20 03:11:17;;;;;;;11.30;9.20;;;;;;;17.27;86.34;96901.80;109810;1250;71385;-69
2022/08/20 03:13:47;;;;;;;11.90;10.60;;;;;;;17.21;87.19;96904.39;109635;1249;69926;-68
2022/08/20 03:16:17;;;;;;;12.50;11.20;;;;;;;17.13;88.09;96908.23;109685;1250;67762;-68
2022/08/20 03:18:47;;;;;;;12.90;10.40;;;;;;;17.06;89.19;96908.98;109817;1250;59758;-68
2022/08/20 03:21:20;;;;;;;14.10;11.80;;;;;;;17.02;91.40;96904.55;109754;1250;59642;-69
2022/08/20 03:23:52;;;;;;;11.30;9.90;;;;;;;16.97;91.43;96904.91;109761;1250;71346;-69
2022/08/20 03:26:23;;;;;;;12.60;10.30;;;;;;;16.94;91.18;96906.06;110175;1247;68624;-68
2022/08/20 03:28:53;;;;;;;11.40;9.80;;;;;;;16.92;91.63;96907.17;110026;1250;68671;-68
2022/08/20 03:31:23;;;;;;;14.70;11.70;;;;;;;16.89;92.73;96913.48;109962;1247;59694;-68
2022/08/20 03:33:53;;;;;;;15.30;11.30;;;;;;;16.87;92.09;96913.23;110012;1248;60021;-68
2022/08/20 03:36:24;;;;;;;18.00;13.30;;;;;;;16.78;92.38;96916.42;110131;1250;71456;-68
2022/08/20 03:38:59;;;;;;;16.30;13.10;;;;;;;16.64;91.27;96912.54;109939;1250;68465;-67
2022/08/20 03:41:31;;;;;;;12.80;10.60;;;;;;;16.53;90.67;96917.39;110068;1250;68675;-68
2022/08/20 03:44:01;;;;;;;16.00;12.20;;;;;;;16.47;92.01;96917.48;110067;1248;59774;-69
2022/08/20 03:46:30;;;;;;;10.80;9.40;;;;;;;16.46;93.58;96919.61;110064;1250;60139;-69
2022/08/20 03:49:00;;;;;;;;;;;;;;;16.45;93.40;96921.19;110558;1247;70564;-69
2022/08/20 03:51:31;;;;;;;12.00;9.80;;;;;;;16.45;94.19;96916.46;110236;1248;67964;-69
2022/08/20 03:54:20;;;;;;;15.60;11.70;;;;;;;16.48;93.29;96919.73;110056;1247;69266;-69
2022/08/20 03:56:49;;;;;;;16.00;12.00;;;;;;;16.53;94.95;96917.09;110068;1248;59739;-69
2022/08/20 03:59:20;;;;;;;13.00;11.60;;;;;;;16.58;94.68;96917.10;109813;1250;59689;-68
2022/08/20 04:01:49;;;;;;;12.90;10.50;;;;;;;16.62;92.50;96917.15;110307;1248;70816;-69
2022/08/20 04:04:19;;;;;;;11.40;9.40;;;;;;;16.67;92.20;96917.35;110301;1250;69353;-69
2022/08/20 04:06:48;;;;;;;14.30;10.60;;;;;;;16.71;90.20;96909.77;110086;1250;68743;-70
2022/08/20 04:09:19;;;;;;;15.10;11.20;;;;;;;16.74;92.26;96909.80;110237;1247;60094;-69
2022/08/20 04:11:48;;;;;;;;;;;;;;;16.81;91.50;96906.23;110133;1248;59747;-69
2022/08/20 04:14:18;;;;;;;;;;;;;;;16.93;90.66;96904.44;110146;1248;70782;-70
2022/08/20 04:16:48;;;;;;;;;;;;;;;17.12;90.58;96907.68;110192;1247;68791;-67
2022/08/20 04:19:20;;;;;;;12.30;9.30;;;;;;;17.29;90.15;96911.41;110152;1248;68484;-70
2022/08/20 04:21:50;;;;;;;9.70;8.30;;;;;;;17.47;89.31;96914.48;110193;1247;59754;-69
2022/08/20 04:24:19;;;;;;;;;;;;;;;17.60;88.65;96912.36;109866;1250;59716;-69
2022/08/20 04:27:04;;;;;;;11.10;9.90;;;;;;;17.73;88.12;96913.34;110121;1247;71631;-67
2022/08/20 04:29:35;;;;;;;10.80;8.60;;;;;;;17.84;87.40;96918.15;110109;1249;68846;-70
2022/08/20 04:32:05;;;;;;;10.30;9.00;;;;;;;17.93;87.05;96922.27;110114;1248;69438;-67
2022/08/20 04:34:35;;;;;;;10.90;9.40;;;;;;;18.02;87.34;96924.98;110053;1248;59763;-68
2022/08/20 04:37:05;;;;;;;11.20;9.10;;;;;;;18.13;87.66;96918.44;110131;1250;59686;-67
2022/08/20 04:40:52;;;;;;;10.40;9.30;;;;;;;18.36;87.40;96915.70;110066;1247;70835;-67
2022/08/20 04:42:37;;;;;;;12.70;10.00;;;;;;;18.70;86.94;96925.97;110264;1247;69165;-69
2022/08/20 04:45:07;;;;;;;12.60;10.90;;;;;;;18.94;85.03;96925.05;110738;1248;69492;-68
2022/08/20 04:47:36;;;;;;;12.20;10.70;;;;;;;18.95;83.48;96924.11;110238;1247;59868;-71
2022/08/20 04:50:08;;;;;;;11.40;10.10;;;;;;;19.09;83.27;96924.59;110074;1249;59680;-69
2022/08/20 04:52:38;;;;;;;12.50;10.00;;;;;;;19.24;82.14;96928.88;108623;1248;1914815;-67
2022/08/20 04:55:09;;;;;;;12.70;9.30;;;;;;;19.40;81.39;96938.02;110020;1247;68981;-68
2022/08/20 04:57:38;;;;;;;9.40;8.50;;;;;;;19.58;80.89;96938.84;110059;1248;68879;-68
2022/08/20 05:00:14;;;;;;;9.90;8.60;;;;;;;19.84;79.92;96933.05;110097;1247;60191;-68
2022/08/20 05:02:44;;;;;;;10.30;8.30;;;;;;;20.18;78.66;96931.04;109748;1250;59691;-67
2022/08/20 05:05:13;;;;;;;9.90;8.10;;;;;;;20.59;78.00;96927.55;109907;1250;69808;-68
2022/08/20 05:07:44;;;;;;;10.00;7.90;;;;;;;21.02;76.18;96926.04;110167;1247;69528;-68
2022/08/20 05:10:16;;;;;;;10.40;8.00;;;;;;;21.47;76.70;96924.67;110152;1247;70006;-68
2022/08/20 05:12:45;;;;;;;9.00;8.00;;;;;;;22.01;78.73;96918.29;110144;1248;59783;-69
2022/08/20 05:15:25;;;;;;;10.60;8.50;;;;;;;22.40;74.12;96913.66;109873;1250;59964;-68
2022/08/20 05:17:59;;;;;;;9.90;7.80;;;;;;;22.79;75.24;96913.73;110115;1250;71582;-68
2022/08/20 05:20:30;;;;;;;9.50;8.40;;;;;;;22.93;70.12;96910.59;110188;1248;68616;-68
2022/08/20 05:23:01;;;;;;;10.70;8.80;;;;;;;23.17;69.53;96906.79;110054;1248;68541;-68
2022/08/20 05:25:30;;;;;;;11.10;9.80;;;;;;;23.23;67.98;96904.08;110036;1247;59657;-68
2022/08/20 05:28:08;;;;;;;10.30;9.30;;;;;;;23.50;69.71;96905.05;109772;1251;59694;-69
2022/08/20 05:30:39;;;;;;;11.40;10.20;;;;;;;23.97;69.41;96901.03;110120;1249;71076;-69
2022/08/20 05:33:09;;;;;;;10.10;9.10;;;;;;;24.17;65.16;96901.66;110049;1250;70038;-68
2022/08/20 05:35:39;;;;;;;11.70;8.40;;;;;;;24.27;64.07;96904.51;110216;1248;69403;-69
2022/08/20 05:38:11;;;;;;;8.50;7.70;;;;;;;24.63;65.19;96902.46;110040;1248;59736;-69
2022/08/20 05:40:41;;;;;;;8.80;7.90;;;;;;;25.01;64.55;96899.20;110689;1248;59619;-69
2022/08/20 05:43:10;;;;;;;10.20;8.50;;;;;;;25.35;64.93;96895.48;110358;1248;71474;-69
2022/08/20 05:45:41;;;;;;;9.60;8.70;;;;;;;25.63;62.70;96893.56;110154;1248;69984;-69
2022/08/20 05:48:16;;;;;;;9.50;7.70;;;;;;;25.82;60.69;96892.22;109942;1250;69458;-69
2022/08/20 05:50:50;;;;;;;8.60;7.80;;;;;;;25.96;60.38;96891.94;110077;1247;59719;-68
2022/08/20 05:53:21;;;;;;;8.70;6.70;;;;;;;26.20;59.30;96891.11;110101;1248;59701;-69
2022/08/20 05:55:51;;;;;;;8.90;7.30;;;;;;;26.51;56.69;96886.98;110103;1247;72224;-68
2022/08/20 05:58:23;;;;;;;8.90;8.10;;;;;;;26.73;57.21;96887.81;110146;1247;68623;-68
2022/08/20 06:00:53;;;;;;;8.70;7.90;;;;;;;26.85;56.17;96890.95;109991;1248;69281;-68
2022/08/20 06:06:10;;;;;;;9.40;7.80;;;;;;;27.07;54.20;96888.46;110082;1247;59633;-67
2022/08/20 06:08:59;;;;;;;9.40;8.50;;;;;;;27.22;53.16;96888.23;110068;1250;70739;-69
2022/08/20 06:11:29;;;;;;;9.60;8.60;;;;;;;27.38;52.33;96886.20;110122;1248;68639;-69
2022/08/20 06:14:04;;;;;;;8.80;7.90;;;;;;;27.69;52.83;96888.14;110107;1247;69659;-69
2022/08/20 06:16:33;;;;;;;9.50;8.40;;;;;;;27.98;52.65;96889.67;110095;1248;59715;-69
2022/08/20 06:19:04;;;;;;;9.10;7.40;;;;;;;28.21;50.05;96884.11;110051;1251;59696;-69
2022/08/20 06:21:39;;;;;;;7.90;7.00;;;;;;;28.50;50.43;96885.11;109680;1250;71555;-69
2022/08/20 06:24:08;;;;;;;7.50;6.50;;;;;;;28.83;49.42;96885.27;110129;1247;69261;-68
2022/08/20 06:26:37;;;;;;;9.40;6.60;;;;;;;29.17;49.32;96884.47;110125;1247;69218;-68
2022/08/20 06:29:06;;;;;;;7.40;6.40;;;;;;;29.38;47.90;96881.49;110163;1250;59749;-69
2022/08/20 06:31:38;;;;;;;;;;;;;;;29.50;47.77;96879.34;110053;1248;59721;-69
2022/08/20 06:34:07;;;;;;;7.70;5.90;;;;;;;29.60;46.43;96874.06;110072;1250;71927;-69
2022/08/20 06:36:36;;;;;;;7.40;6.70;;;;;;;29.67;46.89;96873.80;109976;1251;69261;-71
2022/08/20 06:39:05;;;;;;;10.00;6.70;;;;;;;29.71;46.65;96874.14;110105;1250;68535;-71
2022/08/20 06:41:34;;;;;;;9.20;6.10;;;;;;;29.89;47.11;96872.77;109780;1251;60183;-73
2022/08/20 06:44:09;;;;;;;7.20;6.00;;;;;;;30.20;46.43;96874.09;110085;1248;59649;-72
2022/08/20 06:46:38;;;;;;;7.70;6.10;;;;;;;30.39;44.85;96878.16;110277;1248;71400;-70
2022/08/20 06:49:07;;;;;;;6.50;5.80;;;;;;;30.60;44.38;96874.52;109996;1250;69444;-72
2022/08/20 06:51:37;;;;;;;7.20;5.80;;;;;;;30.72;42.72;96874.38;109997;1250;69430;-76
2022/08/20 06:54:09;;;;;;;7.40;6.00;;;;;;;30.79;42.59;96877.48;110947;1247;59688;-72
2022/08/20 06:56:38;;;;;;;;;;;;;;;30.85;42.60;96871.18;110740;1247;59705;-72
2022/08/20 06:59:07;;;;;;;6.40;5.60;;;;;;;31.05;42.39;96875.92;110069;1248;71706;-72
2022/08/20 07:01:35;;;;;;;;;;;;;;;31.33;42.33;96877.86;110133;1250;68463;-72
2022/08/20 07:04:06;;;;;;;8.70;5.50;;;;;;;31.43;40.63;96875.10;110345;1250;68299;-71
2022/08/20 07:06:35;;;;;;;6.30;5.70;;;;;;;31.55;40.32;96876.22;110338;1249;60190;-70
2022/08/20 07:09:04;;;;;;;6.90;5.50;;;;;;;31.54;40.15;96874.27;110275;1248;59691;-71
2022/08/20 07:11:34;;;;;;;8.70;6.00;;;;;;;31.53;39.64;96875.73;110189;1247;71777;-69
2022/08/20 07:14:04;;;;;;;6.20;5.40;;;;;;;31.46;39.93;96874.69;110086;1247;69527;-71
2022/08/20 07:16:33;;;;;;;6.70;5.30;;;;;;;31.57;39.96;96872.78;110159;1248;68622;-71
2022/08/20 07:19:02;;;;;;;6.80;4.90;;;;;;;31.68;39.50;96872.05;110212;1250;59755;-69
2022/08/20 07:21:32;;;;;;;6.20;5.00;;;;;;;31.91;39.67;96872.23;109890;1250;59657;-69
2022/08/20 07:24:02;;;;;;;7.20;5.00;;;;;;;32.02;38.73;96864.89;110033;1250;71382;-70
2022/08/20 07:26:31;;;;;;;7.30;5.20;;;;;;;32.10;37.96;96859.70;110029;1247;70128;-68
2022/08/20 07:29:00;;;;;;;;;;;;;;;32.00;38.34;96857.86;109764;1250;69729;-72
2022/08/20 07:34:17;;;;;;;5.90;5.20;;;;;;;31.69;38.21;96855.41;109737;1251;59749;-75
2022/08/20 07:36:49;;;;;;;5.70;4.90;;;;;;;32.04;38.27;96856.31;109846;1250;71601;-75
2022/08/20 07:39:17;;;;;;;6.00;5.20;;;;;;;32.35;38.57;96850.52;110052;1247;69198;-76
2022/08/20 07:42:01;;;;;;;6.40;5.40;;;;;;;32.56;38.35;96850.35;109900;1249;69227;-74
2022/08/20 07:44:31;;;;;;;6.60;5.60;;;;;;;32.69;38.02;96846.66;109998;1249;59758;-74
2022/08/20 07:47:00;;;;;;;;;;;;;;;32.91;37.52;96843.14;109913;1248;59707;-73
2022/08/20 07:49:30;;;;;;;6.40;5.10;;;;;;;33.15;37.01;96845.04;109894;1251;72189;-75
2022/08/20 07:51:58;;;;;;;6.20;4.90;;;;;;;33.31;35.99;96847.77;110004;1248;69059;-73
2022/08/20 07:54:27;;;;;;;;;;;;;;;33.18;35.59;96849.27;110045;1250;70059;-75
2022/08/20 07:57:02;;;;;;;8.30;4.50;;;;;;;33.20;36.28;96852.25;109775;1250;59782;-74
2022/08/20 07:59:31;;;;;;;5.10;4.60;;;;;;;33.35;36.58;96848.25;110076;1250;59693;-75
2022/08/20 08:02:00;;;;;;;8.10;5.60;;;;;;;33.43;35.83;96843.81;110012;1250;71001;-74
2022/08/20 08:04:29;;;;;;;5.60;4.90;;;;;;;33.30;35.75;96839.14;110007;1251;68495;-75
2022/08/20 08:06:59;;;;;;;6.50;5.30;;;;;;;33.20;36.65;96836.96;109617;1251;68442;-72
2022/08/20 08:09:28;;;;;;;5.90;5.30;;;;;;;33.20;36.54;96833.50;110080;1248;59706;-75
2022/08/20 08:11:59;;;;;;;5.50;4.90;;;;;;;33.29;36.36;96831.72;110085;1247;59695;-74
2022/08/20 08:14:32;;;;;;;4.60;4.10;;;;;;;33.41;36.23;96828.42;110026;1249;69792;-73
2022/08/20 08:17:03;;;;;;;7.00;4.90;;;;;;;33.76;35.70;96825.27;110035;1250;68795;-74
2022/08/20 08:19:40;;;;;;;5.60;5.10;;;;;;;33.97;35.53;96819.70;110032;1248;69549;-75
2022/08/20 08:22:12;;;;;;;6.20;4.40;;;;;;;34.07;35.22;96816.85;110080;1248;59707;-76
2022/08/20 08:24:45;;;;;;;6.60;4.60;;;;;;;34.39;34.86;96818.14;110097;1247;59741;-73
2022/08/20 08:27:24;;;;;;;5.40;4.90;;;;;;;34.36;35.21;96817.45;110058;1247;71374;-74
2022/08/20 08:29:53;;;;;;;6.30;5.00;;;;;;;34.55;34.78;96813.25;110056;1250;69216;-74
2022/08/20 08:32:23;;;;;;;6.90;5.50;;;;;;;34.82;33.61;96816.67;110069;1247;69365;-74
2022/08/20 08:34:52;;;;;;;8.00;4.70;;;;;;;34.85;33.22;96814.39;110081;1247;59718;-74
2022/08/20 08:37:21;;;;;;;6.20;5.10;;;;;;;34.82;33.15;96816.64;110026;1248;59724;-74
2022/08/20 08:39:49;;;;;;;5.80;5.20;;;;;;;34.98;33.13;96820.34;110039;1247;70806;-75
2022/08/20 08:42:42;;;;;;;7.80;5.40;;;;;;;35.16;32.55;96818.81;110088;1247;69238;-74
2022/08/20 08:45:16;;;;;;;5.60;4.90;;;;;;;35.14;32.06;96816.21;110035;1248;68644;-74
2022/08/20 08:47:45;;;;;;;7.00;5.10;;;;;;;34.99;31.86;96810.95;110022;1250;59725;-76
2022/08/20 08:50:24;;;;;;;6.20;4.90;;;;;;;35.10;32.26;96814.36;110061;1249;59671;-77
2022/08/20 08:53:23;;;;;;;6.50;4.90;;;;;;;35.23;31.65;96814.57;110676;1248;71739;-74
2022/08/20 08:55:53;;;;;;;6.00;4.60;;;;;;;35.29;31.75;96812.13;111032;1250;69869;-75
2022/08/20 08:58:22;;;;;;;5.50;4.40;;;;;;;35.57;32.59;96814.08;110387;1249;69282;-75
2022/08/20 09:00:50;;;;;;;6.30;4.90;;;;;;;36.07;31.50;96820.17;110061;1247;59691;-75
2022/08/20 09:03:33;;;;;;;11.50;5.00;;;;;;;36.27;30.50;96815.20;110161;1248;60085;-73
2022/08/20 09:06:03;;;;;;;6.40;5.30;;;;;;;36.28;29.75;96818.45;109888;1249;71335;-74
2022/08/20 09:08:41;;;;;;;6.10;5.50;;;;;;;36.21;29.28;96822.40;110048;1250;68658;-74
2022/08/20 09:11:10;;;;;;;7.50;5.10;;;;;;;36.20;29.62;96823.01;110033;1250;68654;-73
2022/08/20 09:13:39;;;;;;;5.20;4.50;;;;;;;36.32;29.38;96820.01;110001;1250;59746;-76
2022/08/20 09:16:09;;;;;;;5.30;4.40;;;;;;;36.53;28.16;96816.77;110063;1251;59677;-75
2022/08/20 09:18:39;;;;;;;6.10;4.40;;;;;;;36.58;28.65;96817.01;110174;1248;71963;-78
2022/08/20 09:21:08;;;;;;;5.30;4.50;;;;;;;36.89;28.34;96812.98;110088;1247;69802;-75
2022/08/20 09:23:37;;;;;;;6.10;4.90;;;;;;;37.14;28.23;96816.81;110075;1248;69441;-75
2022/08/20 09:26:06;;;;;;;5.40;4.80;;;;;;;37.30;27.98;96815.08;110109;1247;59773;-74
2022/08/20 09:28:36;;;;;;;5.50;4.20;;;;;;;37.13;27.73;96808.34;110051;1247;59675;-75
2022/08/20 09:31:04;;;;;;;4.90;4.40;;;;;;;37.42;27.28;96810.33;110020;1248;71621;-76
2022/08/20 09:33:34;;;;;;;4.90;4.40;;;;;;;37.61;27.49;96811.64;110088;1247;69304;-76
2022/08/20 09:36:03;;;;;;;5.50;4.10;;;;;;;37.63;27.01;96812.54;110001;1250;67491;-75
2022/08/20 09:38:53;;;;;;;5.10;4.60;;;;;;;37.93;27.31;96808.01;109987;1250;59692;-75
2022/08/20 09:41:22;;;;;;;5.70;4.50;;;;;;;38.01;26.97;96809.06;110014;1250;59611;-74
2022/08/20 09:43:50;;;;;;;5.50;4.80;;;;;;;38.23;26.67;96806.23;110064;1251;71707;-74
2022/08/20 09:46:19;;;;;;;4.30;3.90;;;;;;;38.21;25.93;96808.66;110079;1250;69919;-76
2022/08/20 09:48:54;;;;;;;5.00;4.40;;;;;;;38.21;25.92;96812.16;110026;1249;70207;-75
2022/08/20 09:51:23;;;;;;;6.90;5.30;;;;;;;38.31;25.68;96809.30;110038;1250;59700;-77
2022/08/20 09:53:53;;;;;;;6.50;5.00;;;;;;;38.23;25.77;96805.02;109850;1251;59710;-74
2022/08/20 09:56:24;;;;;;;5.20;4.50;;;;;;;38.01;25.81;96796.11;109796;1251;71004;-74
2022/08/20 09:58:54;;;;;;;6.70;5.30;;;;;;;37.67;26.52;96802.80;110002;1247;69244;-75
2022/08/20 10:01:28;;;;;;;5.20;4.70;;;;;;;37.97;26.11;96803.14;110051;1248;69872;-74
2022/08/20 10:03:57;;;;;;;6.60;4.50;;;;;;;38.42;25.27;96799.26;110116;1247;59725;-76
2022/08/20 10:06:26;;;;;;;6.70;4.50;;;;;;;38.24;26.01;96797.86;110095;1250;59683;-76
2022/08/20 10:08:54;;;;;;;6.10;4.90;;;;;;;37.97;27.23;96795.42;110167;1250;71666;-75
2022/08/20 10:11:23;;;;;;;7.20;4.60;;;;;;;37.93;27.42;96794.11;110240;1251;69234;-75
2022/08/20 10:13:52;;;;;;;5.40;4.40;;;;;;;38.31;26.20;96785.05;110043;1249;69519;-75
2022/08/20 10:16:21;;;;;;;6.40;4.80;;;;;;;38.98;25.62;96790.90;110073;1250;59726;-75
2022/08/20 10:18:50;;;;;;;6.30;4.70;;;;;;;39.22;23.97;96787.52;109756;1251;59708;-74
2022/08/20 10:21:19;;;;;;;6.40;4.30;;;;;;;39.19;24.22;96784.86;110139;1248;71544;-72
2022/08/20 10:23:48;;;;;;;4.40;4.00;;;;;;;39.41;24.01;96789.88;110221;1248;69739;-75
2022/08/20 10:26:18;;;;;;;6.10;4.50;;;;;;;39.70;23.62;96786.80;109990;1248;70217;-76
2022/08/20 10:28:46;;;;;;;5.20;4.50;;;;;;;39.86;23.54;96781.27;110075;1247;59760;-76
2022/08/20 10:31:15;;;;;;;4.70;4.20;;;;;;;40.16;23.52;96780.10;110140;1248;59755;-75
2022/08/20 10:33:44;;;;;;;6.20;4.40;;;;;;;39.77;24.61;96775.94;109898;1248;71972;-75
2022/08/20 10:36:16;;;;;;;5.20;4.40;;;;;;;39.56;25.47;96771.23;110195;1247;69374;-73
2022/08/20 10:38:47;;;;;;;4.80;4.30;;;;;;;39.97;23.87;96768.00;110182;1248;70167;-78
2022/08/20 10:41:16;;;;;;;4.60;4.10;;;;;;;40.37;23.44;96764.08;110129;1247;59709;-76
2022/08/20 10:43:45;;;;;;;5.00;4.10;;;;;;;40.87;22.64;96758.65;110063;1247;59696;-75
2022/08/20 10:46:14;;;;;;;6.30;4.30;;;;;;;40.71;22.33;96763.36;110246;1248;71243;-76
2022/08/20 10:48:44;;;;;;;7.50;4.60;;;;;;;40.59;21.99;96763.27;110194;1247;69315;-76
2022/08/20 10:51:13;;;;;;;5.00;4.00;;;;;;;40.25;22.67;96767.12;109890;1250;69450;-76
2022/08/20 10:53:42;;;;;;;6.90;3.90;;;;;;;40.91;22.18;96759.92;110536;1247;59659;-75
2022/08/20 10:56:12;;;;;;;4.40;3.90;;;;;;;41.10;21.59;96761.85;110386;1248;59616;-74
2022/08/20 10:58:43;;;;;;;4.30;3.60;;;;;;;40.82;21.33;96760.89;110252;1247;71333;-76
2022/08/20 11:01:11;;;;;;;5.70;4.40;;;;;;;41.12;21.50;96758.91;110127;1248;69185;-77
2022/08/20 11:03:58;;;;;;;5.30;4.40;;;;;;;40.72;21.01;96756.19;109967;1247;69821;-76
2022/08/20 11:06:27;;;;;;;7.10;4.50;;;;;;;40.30;22.38;96756.50;110051;1248;59742;-75
2022/08/20 11:08:56;;;;;;;4.80;3.70;;;;;;;40.39;22.36;96752.07;110110;1247;59699;-76
2022/08/20 11:11:25;;;;;;;5.20;4.20;;;;;;;40.22;22.47;96753.80;110181;1247;70014;-76
2022/08/20 11:13:54;;;;;;;4.20;3.70;;;;;;;40.59;21.93;96753.29;110052;1248;69024;-75
2022/08/20 11:16:23;;;;;;;6.40;4.50;;;;;;;41.17;21.43;96747.41;110035;1248;67959;-76
2022/08/20 11:18:52;;;;;;;5.30;3.90;;;;;;;41.31;21.06;96743.98;109843;1250;59747;-76
2022/08/20 11:21:21;;;;;;;4.70;3.90;;;;;;;41.59;20.58;96739.69;110171;1248;59611;-77
2022/08/20 11:23:50;;;;;;;5.00;4.50;;;;;;;41.41;19.66;96735.73;110148;1247;71639;-75
2022/08/20 11:26:23;;;;;;;7.20;5.00;;;;;;;41.23;20.27;96730.54;110007;1247;69599;-75
2022/08/20 11:28:51;;;;;;;6.90;4.30;;;;;;;41.10;20.24;96728.02;110077;1247;70038;-76
2022/08/20 11:31:20;;;;;;;7.90;4.60;;;;;;;40.69;21.56;96718.84;109767;1250;59739;-76
2022/08/20 11:33:49;;;;;;;5.40;4.50;;;;;;;40.92;21.68;96715.18;110221;1247;59679;-76
2022/08/20 11:36:17;;;;;;;6.50;4.00;;;;;;;40.59;22.21;96714.29;110178;1247;72561;-75
2022/08/20 11:38:47;;;;;;;6.30;3.90;;;;;;;40.15;22.47;96708.82;110032;1247;69805;-76
2022/08/20 11:41:16;;;;;;;7.30;4.50;;;;;;;40.67;22.51;96702.94;110141;1248;70168;-78
2022/08/20 11:43:45;;;;;;;5.80;4.20;;;;;;;40.92;22.03;96702.71;110078;1248;59752;-75
2022/08/20 11:46:34;;;;;;;4.80;4.30;;;;;;;40.44;22.89;96702.33;110115;1247;59691;-76
2022/08/20 11:49:04;;;;;;;4.90;4.20;;;;;;;40.44;22.49;96698.50;109815;1247;71982;-76
2022/08/20 11:51:33;;;;;;;6.30;4.50;;;;;;;39.77;22.44;96690.38;110133;1247;69201;-76